Time;durP1;ratioP1;P1;durP2;ratioP2;P2;SDS_P1;SDS_P2;PMS_P1;PMS_P2;Temp;Humidity;BMP_temperature;BMP_pressure;BME280_temperature;BME280_humidity;BME280_pressure;Samples;Min_cycle;Max_cycle;Signal;HPM_P1;HPM_P2
2023/06/13 00:00:08;;;;;;;5.30;3.90;;;16.40;99.90;;;;;;5095034;28;20913;-45
2023/06/13 00:02:37;;;;;;;4.80;4.13;;;16.40;99.90;;;;;;5094724;28;20439;-46
2023/06/13 00:05:04;;;;;;;4.97;3.63;;;16.40;99.90;;;;;;5092470;28;20924;-45
2023/06/13 00:07:32;;;;;;;4.30;3.33;;;16.40;99.90;;;;;;5093982;28;20982;-45
2023/06/13 00:09:59;;;;;;;5.67;4.17;;;16.40;99.90;;;;;;5094532;28;20475;-48
2023/06/13 00:12:26;;;;;;;6.30;3.60;;;16.40;99.90;;;;;;5093614;28;20517;-45
2023/06/13 00:14:54;;;;;;;3.80;3.23;;;16.30;99.90;;;;;;5094577;28;20449;-45
2023/06/13 00:17:25;;;;;;;5.90;4.90;;;16.20;99.90;;;;;;5094218;28;20570;-45
2023/06/13 00:19:54;;;;;;;4.43;3.90;;;16.20;99.90;;;;;;5092943;28;20450;-50
2023/06/13 00:22:21;;;;;;;5.27;4.37;;;16.20;99.90;;;;;;5092596;28;20459;-45
2023/06/13 00:24:48;;;;;;;4.60;3.70;;;16.10;99.90;;;;;;5093787;28;21040;-48
2023/06/13 00:27:15;;;;;;;5.50;4.13;;;15.90;99.90;;;;;;5093922;28;20554;-45
2023/06/13 00:29:42;;;;;;;4.97;3.90;;;15.90;99.90;;;;;;5094200;28;20507;-45
2023/06/13 00:32:09;;;;;;;5.00;3.83;;;15.90;99.90;;;;;;5094339;28;20794;-45
2023/06/13 00:34:40;;;;;;;5.60;4.33;;;16.00;99.90;;;;;;5093969;28;20436;-48
2023/06/13 00:37:09;;;;;;;5.20;3.87;;;16.00;99.90;;;;;;5093822;28;20471;-46
2023/06/13 00:39:36;;;;;;;5.70;4.40;;;16.00;99.90;;;;;;5094226;28;20439;-45
2023/06/13 00:42:04;;;;;;;5.57;4.53;;;16.00;99.90;;;;;;5093807;28;20867;-45
2023/06/13 00:44:31;;;;;;;5.70;4.10;;;16.00;99.90;;;;;;5093757;28;20455;-47
2023/06/13 00:46:58;;;;;;;7.03;4.07;;;15.90;99.90;;;;;;5091848;28;20442;-44
2023/06/13 00:49:25;;;;;;;5.30;3.83;;;15.90;99.90;;;;;;5093862;28;20573;-48
2023/06/13 00:51:55;;;;;;;5.40;4.10;;;15.80;99.90;;;;;;5094326;28;20468;-45
2023/06/13 00:54:23;;;;;;;5.13;4.20;;;15.80;99.90;;;;;;5093603;28;20456;-46
2023/06/13 00:56:50;;;;;;;8.93;4.60;;;15.80;99.90;;;;;;5092866;28;20451;-46
2023/06/13 00:59:18;;;;;;;4.70;4.30;;;15.80;99.90;;;;;;5093019;28;20471;-45
2023/06/13 01:01:47;;;;;;;5.87;4.40;;;15.90;99.90;;;;;;5093481;28;20468;-49
2023/06/13 01:04:15;;;;;;;5.00;3.93;;;15.80;99.90;;;;;;5091842;28;20447;-47
2023/06/13 01:06:45;;;;;;;5.30;4.80;;;15.90;99.90;;;;;;5093912;28;20502;-46
2023/06/13 01:09:16;;;;;;;4.33;3.93;;;15.80;99.90;;;;;;5093043;28;20514;-48
2023/06/13 01:11:57;;;;;;;6.13;4.10;;;15.80;99.90;;;;;;5093682;28;20811;-45
2023/06/13 01:14:36;;;;;;;4.97;3.70;;;15.80;99.90;;;;;;5093151;28;20478;-47
2023/06/13 01:17:10;;;;;;;6.70;5.70;;;15.90;99.90;;;;;;5093029;28;20527;-44
2023/06/13 01:19:41;;;;;;;5.23;3.97;;;15.90;99.90;;;;;;5093475;28;20454;-45
2023/06/13 01:22:13;;;;;;;4.90;4.10;;;15.70;99.90;;;;;;5093489;28;20448;-49
2023/06/13 01:24:48;;;;;;;4.57;3.87;;;15.60;99.90;;;;;;5092956;28;20884;-47
2023/06/13 01:27:18;;;;;;;5.43;3.83;;;15.60;99.90;;;;;;5092725;28;20850;-46
2023/06/13 01:29:47;;;;;;;6.83;3.83;;;15.60;99.90;;;;;;5093274;28;20519;-47
2023/06/13 01:32:15;;;;;;;4.27;3.57;;;15.50;99.90;;;;;;5093302;28;20519;-45
2023/06/13 01:34:42;;;;;;;5.50;4.00;;;15.60;99.90;;;;;;5143100;22;20548;-87
2023/06/13 01:37:09;;;;;;;5.07;4.40;;;15.60;99.90;;;;;;5137449;27;20431;-86
2023/06/13 01:39:36;;;;;;;6.00;4.10;;;15.60;99.90;;;;;;5135240;28;20452;-87
2023/06/13 01:42:04;;;;;;;5.87;4.60;;;15.60;99.90;;;;;;5137110;27;20431;-87
2023/06/13 01:44:32;;;;;;;5.27;3.97;;;15.60;99.90;;;;;;5136896;27;20442;-87
2023/06/13 01:47:07;;;;;;;4.53;4.03;;;15.50;99.90;;;;;;5137465;22;20500;-46
2023/06/13 01:49:53;;;;;;;5.07;4.00;;;15.50;99.90;;;;;;5112902;28;20537;-50
2023/06/13 01:52:27;;;;;;;5.67;4.10;;;15.50;99.90;;;;;;5112865;28;20527;-52
2023/06/13 01:55:05;;;;;;;4.77;3.80;;;15.50;99.90;;;;;;5112990;28;20546;-48
2023/06/13 01:57:37;;;;;;;4.40;3.83;;;15.50;99.90;;;;;;5112722;28;20449;-49
2023/06/13 02:00:09;;;;;;;5.53;4.77;;;15.50;99.90;;;;;;5118721;22;20514;-48
2023/06/13 02:02:36;;;;;;;5.27;4.00;;;15.50;99.90;;;;;;5112821;28;20475;-48
2023/06/13 02:05:03;;;;;;;5.30;3.73;;;15.50;99.90;;;;;;5110692;28;21088;-48
2023/06/13 02:07:32;;;;;;;6.17;4.03;;;15.60;99.90;;;;;;5112660;28;20512;-47
2023/06/13 02:10:01;;;;;;;6.30;4.93;;;15.60;99.90;;;;;;5112540;28;20479;-48
2023/06/13 02:12:28;;;;;;;5.67;4.30;;;15.50;99.90;;;;;;5111458;28;20449;-48
2023/06/13 02:14:56;;;;;;;5.37;4.20;;;15.50;99.90;;;;;;5112572;28;20489;-49
2023/06/13 02:17:25;;;;;;;5.90;3.70;;;15.40;99.90;;;;;;5112295;28;20449;-50
2023/06/13 02:19:52;;;;;;;7.00;4.80;;;15.40;99.90;;;;;;5111108;28;20466;-48
2023/06/13 02:22:19;;;;;;;5.93;4.10;;;15.30;99.90;;;;;;5112897;28;20437;-48
2023/06/13 02:24:47;;;;;;;6.93;4.37;;;15.40;99.90;;;;;;5112172;28;20484;-47
2023/06/13 02:27:13;;;;;;;5.10;3.97;;;15.30;99.90;;;;;;5112290;28;20480;-50
2023/06/13 02:29:40;;;;;;;6.57;4.10;;;15.20;99.90;;;;;;5112213;28;21025;-49
2023/06/13 02:32:08;;;;;;;5.07;4.07;;;15.20;99.90;;;;;;5112324;28;20439;-49
2023/06/13 02:34:37;;;;;;;5.03;4.20;;;15.20;99.90;;;;;;5111947;28;20437;-48
2023/06/13 02:37:04;;;;;;;5.60;4.60;;;15.20;99.90;;;;;;5111612;28;20520;-49
2023/06/13 02:39:31;;;;;;;5.60;3.93;;;15.10;99.90;;;;;;5112356;28;20497;-49
2023/06/13 02:41:57;;;;;;;5.07;4.17;;;15.10;99.90;;;;;;5112166;28;20522;-47
2023/06/13 02:44:24;;;;;;;5.10;4.10;;;15.00;99.90;;;;;;5111916;28;20468;-49
2023/06/13 02:46:51;;;;;;;5.00;3.90;;;15.00;99.90;;;;;;5110798;28;20532;-49
2023/06/13 02:49:18;;;;;;;5.60;4.20;;;15.10;99.90;;;;;;5111616;28;20496;-48
2023/06/13 02:51:46;;;;;;;5.30;4.30;;;15.10;99.90;;;;;;5112116;28;20528;-48
2023/06/13 02:54:13;;;;;;;4.70;3.40;;;15.10;99.90;;;;;;5111942;28;20526;-51
2023/06/13 02:56:40;;;;;;;7.63;4.30;;;15.00;99.90;;;;;;5110078;28;20890;-49
2023/06/13 02:59:07;;;;;;;4.93;3.40;;;14.90;99.90;;;;;;5111386;28;20444;-50
2023/06/13 03:01:34;;;;;;;5.43;4.17;;;14.90;99.90;;;;;;5111939;28;20505;-48
2023/06/13 03:04:01;;;;;;;5.97;4.17;;;14.90;99.90;;;;;;5109825;28;20463;-47
2023/06/13 03:06:30;;;;;;;5.17;4.07;;;14.80;99.90;;;;;;5111842;28;20553;-48
2023/06/13 03:08:59;;;;;;;7.73;4.80;;;14.80;99.90;;;;;;5111368;28;20463;-49
2023/06/13 03:11:26;;;;;;;6.80;4.97;;;14.80;99.90;;;;;;5111264;28;20484;-48
2023/06/13 03:13:53;;;;;;;4.97;4.20;;;14.70;99.90;;;;;;5110988;28;20522;-48
2023/06/13 03:16:21;;;;;;;5.73;4.90;;;14.80;99.90;;;;;;5111098;28;20531;-52
2023/06/13 03:18:48;;;;;;;5.20;4.10;;;14.80;99.90;;;;;;5109707;28;20447;-51
2023/06/13 03:21:16;;;;;;;6.20;4.00;;;14.70;99.90;;;;;;5111586;28;20486;-48
2023/06/13 03:23:43;;;;;;;5.60;4.80;;;14.60;99.90;;;;;;5111709;28;20444;-49
2023/06/13 03:26:11;;;;;;;6.33;4.50;;;14.40;99.90;;;;;;5111081;28;20884;-48
2023/06/13 03:28:38;;;;;;;4.30;3.67;;;14.40;99.90;;;;;;5111178;28;20485;-48
2023/06/13 03:31:07;;;;;;;5.43;4.33;;;14.50;99.90;;;;;;5111684;28;20517;-50
2023/06/13 03:33:34;;;;;;;6.37;4.13;;;14.50;99.90;;;;;;5111877;28;20445;-48
2023/06/13 03:36:02;;;;;;;7.10;3.90;;;14.40;99.90;;;;;;5111135;28;20469;-51
2023/06/13 03:38:29;;;;;;;5.90;4.43;;;14.40;99.90;;;;;;5111351;28;20538;-49
2023/06/13 03:40:56;;;;;;;6.20;4.07;;;14.50;99.90;;;;;;5111434;28;20539;-50
2023/06/13 03:43:26;;;;;;;5.40;3.87;;;14.50;99.90;;;;;;5111280;28;20443;-50
2023/06/13 03:45:53;;;;;;;6.87;4.57;;;14.50;99.90;;;;;;5109019;28;20859;-48
2023/06/13 03:48:20;;;;;;;5.00;3.80;;;14.50;99.90;;;;;;5111045;28;21012;-48
2023/06/13 03:50:47;;;;;;;5.30;3.80;;;14.60;99.90;;;;;;5111203;28;20539;-49
2023/06/13 03:53:14;;;;;;;4.27;3.87;;;14.60;99.90;;;;;;5111647;28;20440;-47
2023/06/13 03:55:43;;;;;;;5.27;4.20;;;14.50;99.90;;;;;;5110605;28;20451;-48
2023/06/13 03:58:11;;;;;;;5.40;3.83;;;14.50;99.90;;;;;;5108841;28;20453;-54
2023/06/13 04:00:39;;;;;;;5.57;4.17;;;14.60;99.90;;;;;;5111282;28;20985;-48
2023/06/13 04:03:08;;;;;;;6.17;4.43;;;14.60;99.90;;;;;;5109617;28;20446;-49
2023/06/13 04:05:34;;;;;;;5.40;4.10;;;14.60;99.90;;;;;;5111026;28;20439;-48
2023/06/13 04:08:02;;;;;;;7.00;4.97;;;14.60;99.90;;;;;;5111055;28;20476;-49
2023/06/13 04:10:29;;;;;;;5.23;4.40;;;14.50;99.90;;;;;;5109681;28;20527;-48
2023/06/13 04:12:56;;;;;;;6.90;5.10;;;14.50;99.90;;;;;;5110646;28;20440;-48
2023/06/13 04:15:23;;;;;;;5.50;4.70;;;14.50;99.90;;;;;;5109594;28;20858;-50
2023/06/13 04:17:52;;;;;;;4.53;3.87;;;14.60;99.90;;;;;;5098787;28;20500;-48
2023/06/13 04:20:21;;;;;;;5.67;4.50;;;14.60;99.90;;;;;;5097619;28;20468;-50
2023/06/13 04:22:48;;;;;;;7.10;4.97;;;14.60;99.90;;;;;;5097721;28;20465;-48
2023/06/13 04:25:16;;;;;;;5.30;4.47;;;14.70;99.90;;;;;;5103019;28;20436;-51
2023/06/13 04:27:44;;;;;;;8.00;5.60;;;14.80;99.90;;;;;;5103458;28;20453;-49
2023/06/13 04:30:12;;;;;;;5.40;4.57;;;14.80;99.90;;;;;;5101697;28;20866;-50
2023/06/13 04:32:43;;;;;;;6.17;4.77;;;14.70;99.90;;;;;;5103872;28;20438;-49
2023/06/13 04:35:15;;;;;;;6.10;4.60;;;14.70;99.90;;;;;;5104081;28;20433;-51
2023/06/13 04:37:43;;;;;;;5.83;4.93;;;14.70;99.90;;;;;;5111123;28;20903;-50
2023/06/13 04:40:13;;;;;;;7.33;4.73;;;14.80;99.90;;;;;;5113945;28;20451;-51
2023/06/13 04:42:47;;;;;;;6.77;5.03;;;14.80;99.90;;;;;;5113431;28;20438;-52
2023/06/13 04:45:15;;;;;;;5.50;4.20;;;14.90;99.90;;;;;;5113384;28;20551;-49
2023/06/13 04:47:45;;;;;;;7.07;4.40;;;14.80;99.90;;;;;;5111120;28;20933;-49
2023/06/13 04:50:13;;;;;;;7.70;4.90;;;14.70;99.90;;;;;;5113876;28;20447;-50
2023/06/13 04:52:41;;;;;;;5.53;4.47;;;14.60;99.90;;;;;;5110888;28;21052;-48
2023/06/13 04:55:09;;;;;;;5.70;5.10;;;14.50;99.90;;;;;;5113480;28;20945;-50
2023/06/13 04:57:36;;;;;;;9.60;4.87;;;14.50;99.90;;;;;;5111543;28;20438;-50
2023/06/13 05:00:09;;;;;;;9.37;6.67;;;14.60;99.90;;;;;;5113431;28;20470;-50
2023/06/13 05:02:36;;;;;;;5.33;4.47;;;14.50;99.90;;;;;;5113849;28;20450;-49
2023/06/13 05:05:04;;;;;;;4.57;4.07;;;14.40;99.90;;;;;;5111567;28;20530;-52
2023/06/13 05:07:34;;;;;;;6.47;5.00;;;14.40;99.90;;;;;;5111558;28;20439;-50
2023/06/13 05:10:02;;;;;;;6.30;5.57;;;14.40;99.90;;;;;;5109821;28;20461;-49
2023/06/13 05:12:29;;;;;;;5.60;4.40;;;14.50;99.90;;;;;;5104383;28;20486;-51
2023/06/13 05:14:56;;;;;;;6.10;4.30;;;14.40;99.90;;;;;;5102411;28;20526;-49
2023/06/13 05:17:23;;;;;;;7.20;5.10;;;14.40;99.90;;;;;;5098262;28;20961;-49
2023/06/13 05:19:50;;;;;;;6.83;4.80;;;14.40;99.90;;;;;;5093686;28;20554;-48
2023/06/13 05:22:17;;;;;;;6.70;4.53;;;14.40;99.90;;;;;;5091266;28;20869;-48
2023/06/13 05:24:45;;;;;;;8.53;5.03;;;14.40;99.90;;;;;;5096442;28;20516;-51
2023/06/13 05:27:13;;;;;;;5.83;4.70;;;14.40;99.90;;;;;;5102855;28;20517;-50
2023/06/13 05:29:40;;;;;;;7.07;5.07;;;14.30;99.90;;;;;;5104052;28;20463;-52
2023/06/13 05:32:09;;;;;;;8.03;7.10;;;14.20;99.90;;;;;;5098264;28;20924;-50
2023/06/13 05:34:36;;;;;;;8.20;6.10;;;14.20;99.90;;;;;;5090608;28;20436;-48
2023/06/13 05:37:10;;;;;;;5.53;4.97;;;14.20;99.90;;;;;;5092954;28;20540;-50
2023/06/13 05:39:37;;;;;;;8.03;5.23;;;14.30;99.90;;;;;;5093261;28;20475;-48
2023/06/13 05:42:06;;;;;;;10.03;6.80;;;14.50;99.90;;;;;;5092834;28;20969;-49
2023/06/13 05:44:33;;;;;;;7.27;5.40;;;14.50;99.90;;;;;;5094370;28;20473;-49
2023/06/13 05:47:00;;;;;;;7.00;5.70;;;;;;;;;;5101215;28;20519;-48
2023/06/13 05:49:27;;;;;;;7.10;5.20;;;14.60;99.90;;;;;;5103166;28;20982;-49
2023/06/13 05:51:54;;;;;;;7.97;5.20;;;14.60;99.90;;;;;;5107890;28;20472;-49
2023/06/13 05:54:21;;;;;;;7.23;5.40;;;14.70;99.90;;;;;;5104400;28;20925;-50
2023/06/13 05:56:48;;;;;;;5.87;5.27;;;14.80;99.90;;;;;;5111597;28;20529;-49
2023/06/13 05:59:16;;;;;;;6.40;5.07;;;14.80;99.90;;;;;;5112163;28;20503;-49
2023/06/13 06:01:43;;;;;;;7.13;5.33;;;14.90;99.90;;;;;;5111970;28;20525;-51
2023/06/13 06:04:10;;;;;;;8.87;5.83;;;14.90;99.90;;;;;;5109530;28;20469;-48
2023/06/13 06:06:37;;;;;;;8.33;5.67;;;15.00;99.90;;;;;;5111639;28;20447;-49
2023/06/13 06:09:05;;;;;;;6.97;5.67;;;15.20;99.90;;;;;;5110929;28;20480;-51
2023/06/13 06:11:33;;;;;;;7.47;5.10;;;15.40;99.90;;;;;;5110986;28;21112;-49
2023/06/13 06:14:00;;;;;;;6.03;5.40;;;15.60;99.90;;;;;;5112106;28;20542;-54
2023/06/13 06:16:28;;;;;;;7.17;4.90;;;15.80;99.90;;;;;;5110780;28;20529;-49
2023/06/13 06:18:55;;;;;;;6.50;4.63;;;15.80;99.90;;;;;;5110743;28;20505;-48
2023/06/13 06:21:22;;;;;;;9.07;5.47;;;15.90;99.90;;;;;;5108727;28;20441;-53
2023/06/13 06:23:49;;;;;;;5.83;5.20;;;16.00;99.90;;;;;;5111180;28;20534;-49
2023/06/13 06:26:16;;;;;;;6.47;5.10;;;16.00;99.90;;;;;;5110620;28;20524;-51
2023/06/13 06:28:43;;;;;;;6.97;5.67;;;15.90;99.90;;;;;;5110623;28;20847;-50
2023/06/13 06:31:10;;;;;;;7.13;5.20;;;15.90;99.90;;;;;;5111775;28;20513;-49
2023/06/13 06:33:38;;;;;;;6.87;5.27;;;15.90;99.90;;;;;;5112168;28;20518;-48
2023/06/13 06:36:05;;;;;;;8.20;5.10;;;15.70;99.90;;;;;;5111858;28;20466;-52
2023/06/13 06:38:32;;;;;;;6.00;5.10;;;15.70;99.90;;;;;;5111843;28;20473;-49
2023/06/13 06:40:59;;;;;;;7.07;5.13;;;15.60;99.90;;;;;;5112034;28;21006;-48
2023/06/13 06:43:26;;;;;;;6.20;4.80;;;15.60;99.90;;;;;;5110355;28;20442;-48
2023/06/13 06:45:53;;;;;;;5.90;4.50;;;15.70;99.90;;;;;;5111126;28;20446;-48
2023/06/13 06:48:20;;;;;;;7.57;5.10;;;15.70;99.90;;;;;;5111559;28;20487;-51
2023/06/13 06:50:48;;;;;;;6.73;4.80;;;15.70;99.90;;;;;;5110113;28;20567;-49
2023/06/13 06:53:15;;;;;;;6.13;5.00;;;15.60;99.90;;;;;;5111184;28;20472;-48
2023/06/13 06:55:42;;;;;;;7.20;6.50;;;15.60;99.90;;;;;;5111235;28;20548;-52
2023/06/13 06:58:09;;;;;;;6.30;4.83;;;15.70;99.90;;;;;;5111794;28;20577;-49
2023/06/13 07:00:35;;;;;;;6.60;4.20;;;15.80;99.90;;;;;;5111675;28;20474;-48
2023/06/13 07:03:02;;;;;;;6.07;4.80;;;15.90;99.90;;;;;;5110261;28;20521;-52
2023/06/13 07:05:29;;;;;;;9.27;6.07;;;15.90;99.90;;;;;;5111350;28;20483;-50
2023/06/13 07:07:57;;;;;;;6.23;5.30;;;15.80;99.90;;;;;;5111910;28;20445;-49
2023/06/13 07:10:26;;;;;;;7.20;5.97;;;15.80;99.90;;;;;;5111879;28;20556;-52
2023/06/13 07:12:53;;;;;;;8.33;6.93;;;15.90;99.90;;;;;;5110580;28;20573;-52
2023/06/13 07:15:21;;;;;;;8.57;5.50;;;15.70;99.90;;;;;;5111398;28;20478;-48
2023/06/13 07:17:48;;;;;;;5.40;4.83;;;15.60;99.90;;;;;;5111464;28;20445;-48
2023/06/13 07:20:15;;;;;;;5.73;5.17;;;15.70;99.90;;;;;;5111839;28;20462;-53
2023/06/13 07:22:43;;;;;;;7.80;5.60;;;15.80;99.90;;;;;;5109123;28;20492;-49
2023/06/13 07:25:11;;;;;;;6.90;5.70;;;16.00;99.90;;;;;;5110932;28;20485;-50
2023/06/13 07:27:38;;;;;;;8.10;5.40;;;16.10;99.90;;;;;;5111352;28;20536;-51
2023/06/13 07:30:05;;;;;;;5.77;5.13;;;16.30;99.90;;;;;;5111988;28;20474;-49
2023/06/13 07:32:32;;;;;;;7.97;5.87;;;16.40;99.90;;;;;;5111292;28;21072;-50
2023/06/13 07:34:59;;;;;;;6.63;5.50;;;16.20;99.90;;;;;;5111320;28;20460;-49
2023/06/13 07:37:26;;;;;;;6.23;4.13;;;16.10;99.90;;;;;;5111089;28;20787;-48
2023/06/13 07:39:53;;;;;;;8.13;5.07;;;16.20;99.90;;;;;;5111364;28;20553;-48
2023/06/13 07:42:21;;;;;;;5.57;4.80;;;16.40;99.90;;;;;;5111592;28;20623;-51
2023/06/13 07:44:49;;;;;;;7.57;4.30;;;;;;;;;;5111191;28;20511;-50
2023/06/13 07:47:15;;;;;;;7.27;6.40;;;16.80;99.90;;;;;;5111221;28;20449;-49
2023/06/13 07:49:42;;;;;;;7.23;5.50;;;16.90;99.90;;;;;;5111177;28;20545;-52
2023/06/13 07:52:09;;;;;;;6.33;4.30;;;16.90;99.90;;;;;;5111454;28;20504;-49
2023/06/13 07:54:37;;;;;;;7.73;5.53;;;17.00;99.90;;;;;;5111139;28;20528;-48
2023/06/13 07:57:06;;;;;;;8.53;5.97;;;17.10;99.90;;;;;;5112714;28;21027;-49
2023/06/13 07:59:34;;;;;;;8.77;6.60;;;17.10;99.90;;;;;;5115846;28;20488;-48
2023/06/13 08:02:01;;;;;;;6.57;5.40;;;17.20;99.90;;;;;;5115262;28;20518;-53
2023/06/13 08:04:28;;;;;;;5.60;4.47;;;17.30;99.90;;;;;;5113169;28;20506;-50
2023/06/13 08:06:55;;;;;;;6.30;4.53;;;17.60;99.90;;;;;;5115708;28;20874;-48
2023/06/13 08:09:22;;;;;;;6.07;4.60;;;17.70;99.90;;;;;;5114558;28;20462;-51
2023/06/13 08:11:50;;;;;;;6.80;4.90;;;17.90;99.90;;;;;;5115125;28;20508;-53
2023/06/13 08:14:16;;;;;;;8.43;4.40;;;18.10;99.90;;;;;;5115000;28;20459;-50
2023/06/13 08:16:46;;;;;;;6.40;4.70;;;18.40;99.90;;;;;;5114842;28;20528;-53
2023/06/13 08:19:13;;;;;;;5.60;4.77;;;18.50;99.90;;;;;;5114834;28;20476;-50
2023/06/13 08:21:40;;;;;;;6.67;4.87;;;18.30;99.90;;;;;;5112166;28;20522;-49
2023/06/13 08:24:07;;;;;;;8.50;5.60;;;18.20;99.90;;;;;;5114801;28;20480;-49
2023/06/13 08:26:34;;;;;;;7.33;5.00;;;18.20;99.90;;;;;;5114838;28;20548;-50
2023/06/13 08:29:02;;;;;;;6.37;4.73;;;18.20;99.90;;;;;;5114263;28;20440;-50
2023/06/13 08:31:29;;;;;;;6.50;5.37;;;18.20;99.90;;;;;;5114635;28;20863;-51
2023/06/13 08:33:58;;;;;;;7.60;5.27;;;18.10;99.90;;;;;;5114987;28;20445;-48
2023/06/13 08:36:25;;;;;;;5.83;4.80;;;18.20;99.90;;;;;;5114426;28;20523;-51
2023/06/13 08:38:52;;;;;;;6.30;4.87;;;18.40;99.90;;;;;;5114447;28;20447;-51
2023/06/13 08:41:20;;;;;;;6.97;5.57;;;18.60;99.90;;;;;;5114483;28;20502;-50
2023/06/13 08:43:47;;;;;;;6.83;4.83;;;18.60;99.90;;;;;;5114513;28;20468;-52
2023/06/13 08:46:15;;;;;;;5.90;5.20;;;18.60;99.90;;;;;;5114023;28;20502;-48
2023/06/13 08:48:42;;;;;;;6.00;5.40;;;18.60;99.90;;;;;;5114330;28;20496;-50
2023/06/13 08:51:16;;;;;;;8.20;5.67;;;18.70;99.90;;;;;;5114336;28;21056;-49
2023/06/13 08:53:49;;;;;;;6.70;5.57;;;18.80;99.90;;;;;;5114875;28;21131;-49
2023/06/13 08:56:16;;;;;;;6.33;4.73;;;18.70;99.90;;;;;;5114183;28;20868;-49
2023/06/13 08:58:46;;;;;;;7.30;5.50;;;18.90;99.90;;;;;;5113710;28;20443;-49
2023/06/13 09:01:13;;;;;;;6.10;4.77;;;19.10;99.90;;;;;;5114433;28;20473;-49
2023/06/13 09:03:41;;;;;;;5.73;5.13;;;19.30;99.90;;;;;;5113299;28;20517;-49
2023/06/13 09:06:11;;;;;;;4.90;4.40;;;19.50;99.90;;;;;;5114131;28;20446;-49
2023/06/13 09:08:39;;;;;;;5.73;4.67;;;19.70;99.90;;;;;;5112939;28;20443;-50
2023/06/13 09:11:06;;;;;;;6.27;4.40;;;19.90;99.90;;;;;;5114456;28;20459;-49
2023/06/13 09:13:35;;;;;;;5.10;4.20;;;20.20;99.90;;;;;;5113744;28;21013;-51
2023/06/13 09:16:02;;;;;;;5.40;3.97;;;20.30;99.90;;;;;;5113599;28;20439;-48
2023/06/13 09:18:30;;;;;;;5.80;4.07;;;20.50;99.90;;;;;;5113772;28;20443;-49
2023/06/13 09:20:58;;;;;;;5.80;4.80;;;20.50;99.90;;;;;;5112281;28;20520;-48
2023/06/13 09:23:27;;;;;;;5.50;4.57;;;20.60;99.90;;;;;;5113414;28;20518;-50
2023/06/13 09:25:57;;;;;;;5.00;4.50;;;20.70;99.90;;;;;;5113121;28;20499;-49
2023/06/13 09:28:28;;;;;;;5.37;4.13;;;20.80;99.90;;;;;;5113578;28;20445;-49
2023/06/13 09:30:56;;;;;;;5.00;3.67;;;20.70;99.90;;;;;;5113900;28;20493;-51
2023/06/13 09:33:23;;;;;;;5.37;4.50;;;20.80;99.90;;;;;;5113417;28;20479;-54
2023/06/13 09:35:51;;;;;;;5.63;4.40;;;20.90;99.90;;;;;;5112817;28;20466;-49
2023/06/13 09:38:23;;;;;;;6.03;4.70;;;21.10;99.90;;;;;;5113496;28;20443;-49
2023/06/13 09:40:51;;;;;;;8.60;4.10;;;21.10;99.90;;;;;;5113405;28;20934;-50
2023/06/13 09:43:18;;;;;;;5.30;4.27;;;21.30;99.90;;;;;;5113499;28;20506;-49
2023/06/13 09:45:45;;;;;;;5.70;4.17;;;21.40;99.90;;;;;;5112754;28;20869;-48
2023/06/13 09:48:12;;;;;;;7.63;5.20;;;21.50;99.90;;;;;;5112961;28;20435;-51
2023/06/13 09:50:40;;;;;;;6.20;4.60;;;21.50;99.90;;;;;;5113063;28;20497;-50
2023/06/13 09:53:08;;;;;;;6.20;4.60;;;21.60;99.90;;;;;;5113212;28;20522;-49
2023/06/13 09:55:35;;;;;;;5.90;5.20;;;21.60;99.90;;;;;;5112209;28;20443;-49
2023/06/13 09:58:04;;;;;;;9.13;5.47;;;21.60;99.90;;;;;;5112739;28;20529;-53
2023/06/13 10:00:31;;;;;;;7.47;5.30;;;21.70;99.90;;;;;;5112483;28;20897;-50
2023/06/13 10:02:59;;;;;;;5.07;4.17;;;21.80;99.90;;;;;;5112907;28;20466;-49
2023/06/13 10:05:26;;;;;;;5.47;4.40;;;21.90;99.90;;;;;;5111025;28;20869;-49
2023/06/13 10:07:53;;;;;;;5.40;4.47;;;22.00;99.90;;;;;;5112456;28;21018;-51
2023/06/13 10:10:20;;;;;;;5.33;4.50;;;22.10;99.90;;;;;;5112976;28;20546;-49
2023/06/13 10:12:50;;;;;;;6.00;4.87;;;22.20;99.90;;;;;;5111297;28;20567;-49
2023/06/13 10:15:28;;;;;;;5.60;4.37;;;22.00;99.90;;;;;;5112068;28;20443;-51
2023/06/13 10:18:00;;;;;;;5.00;3.73;;;22.10;99.90;;;;;;5112450;28;20530;-50
2023/06/13 10:20:29;;;;;;;7.27;4.63;;;22.10;99.90;;;;;;5112054;28;20506;-49
2023/06/13 10:22:57;;;;;;;5.77;4.77;;;22.20;99.90;;;;;;5110117;28;20474;-50
2023/06/13 10:25:26;;;;;;;5.60;5.03;;;22.20;99.90;;;;;;5112159;28;20438;-48
2023/06/13 10:27:56;;;;;;;8.63;4.83;;;22.30;99.90;;;;;;5112489;28;20476;-50
2023/06/13 10:30:44;;;;;;;8.80;5.47;;;22.30;99.90;;;;;;5112533;28;20791;-48
2023/06/13 10:33:35;;;;;;;5.70;4.93;;;22.20;99.90;;;;;;5106167;28;20568;-49
2023/06/13 10:36:18;;;;;;;7.93;4.87;;;22.30;99.90;;;;;;5108532;28;20463;-50
2023/06/13 10:39:19;;;;;;;5.80;4.57;;;22.30;99.90;;;;;;5107655;28;20488;-51
2023/06/13 10:42:00;;;;;;;9.60;4.90;;;21.90;99.90;;;;;;5054052;28;20518;-50
2023/06/13 10:44:38;;;;;;;9.30;4.33;;;22.10;99.90;;;;;;5108887;28;20521;-49
2023/06/13 10:47:08;;;;;;;5.80;4.83;;;22.10;99.90;;;;;;5108577;28;20465;-49
2023/06/13 10:49:38;;;;;;;6.87;4.40;;;22.20;99.90;;;;;;5110856;28;20781;-50
2023/06/13 10:52:10;;;;;;;6.87;5.20;;;22.20;99.90;;;;;;5097417;28;20440;-49
2023/06/13 10:54:38;;;;;;;6.30;4.57;;;22.10;99.90;;;;;;5090584;28;20431;-49
2023/06/13 10:57:06;;;;;;;7.53;4.70;;;22.30;99.90;;;;;;5089554;28;20525;-50
2023/06/13 10:59:37;;;;;;;5.67;4.70;;;22.50;99.90;;;;;;5089964;28;20469;-51
2023/06/13 11:02:05;;;;;;;5.13;4.27;;;22.60;99.90;;;;;;5090106;28;20446;-49
2023/06/13 11:04:33;;;;;;;5.43;4.77;;;22.70;99.90;;;;;;5090335;28;20444;-49
2023/06/13 11:07:26;;;;;;;7.80;5.53;;;22.60;99.70;;;;;;5087771;28;20483;-48
2023/06/13 11:10:02;;;;;;;6.80;4.77;;;22.60;99.90;;;;;;5089983;28;20516;-49
2023/06/13 11:12:30;;;;;;;5.87;4.60;;;22.60;99.90;;;;;;5090754;28;20450;-50
2023/06/13 11:14:59;;;;;;;6.33;4.80;;;22.70;99.90;;;;;;5089440;28;20890;-49
2023/06/13 11:17:26;;;;;;;5.43;4.53;;;22.80;99.90;;;;;;5089255;28;20522;-51
2023/06/13 11:19:56;;;;;;;5.73;4.60;;;22.80;99.40;;;;;;5089371;28;20467;-51
2023/06/13 11:22:23;;;;;;;6.77;4.40;;;22.90;99.90;;;;;;5088018;28;20444;-49
2023/06/13 11:24:53;;;;;;;12.63;5.40;;;22.90;99.90;;;;;;5089220;28;20444;-52
2023/06/13 11:27:20;;;;;;;6.70;4.47;;;22.80;97.80;;;;;;5089532;28;20476;-50
2023/06/13 11:29:47;;;;;;;4.80;3.80;;;22.40;97.60;;;;;;5090609;28;20497;-49
2023/06/13 11:32:14;;;;;;;5.60;4.33;;;22.20;97.60;;;;;;5091535;28;20493;-48
2023/06/13 11:34:43;;;;;;;6.37;4.53;;;22.40;99.80;;;;;;5095033;28;20510;-51
2023/06/13 11:37:21;;;;;;;7.40;4.97;;;22.50;97.80;;;;;;5095054;28;20531;-48
2023/06/13 11:39:55;;;;;;;5.60;4.40;;;22.70;99.10;;;;;;5095520;28;20823;-49
2023/06/13 11:42:22;;;;;;;7.20;4.10;;;22.90;99.90;;;;;;5093380;28;20448;-49
2023/06/13 11:44:49;;;;;;;5.07;4.00;;;22.90;98.80;;;;;;5095009;28;20526;-52
2023/06/13 11:47:16;;;;;;;4.83;4.33;;;23.00;98.10;;;;;;5094715;28;20443;-50
2023/06/13 11:49:54;;;;;;;4.80;4.30;;;23.00;99.10;;;;;;5094795;28;20495;-51
2023/06/13 11:52:23;;;;;;;5.13;4.50;;;23.00;98.50;;;;;;5095224;28;20443;-49
2023/06/13 11:54:50;;;;;;;7.73;4.43;;;23.10;97.30;;;;;;5095225;28;20547;-50
2023/06/13 11:57:17;;;;;;;13.83;6.40;;;23.10;97.60;;;;;;5094656;28;20518;-50
2023/06/13 11:59:45;;;;;;;5.57;4.40;;;23.20;97.40;;;;;;5094577;28;20506;-49
2023/06/13 12:02:14;;;;;;;6.60;4.30;;;23.30;99.00;;;;;;5094940;28;20443;-49
2023/06/13 12:04:43;;;;;;;6.10;4.20;;;23.30;97.70;;;;;;5094667;28;20931;-49
2023/06/13 12:07:13;;;;;;;6.17;4.57;;;23.30;97.00;;;;;;5092840;28;20874;-54
2023/06/13 12:09:43;;;;;;;6.43;4.43;;;23.30;96.80;;;;;;5094996;28;20551;-49
2023/06/13 12:12:12;;;;;;;6.60;5.17;;;23.20;94.90;;;;;;5094684;28;20471;-53
2023/06/13 12:14:39;;;;;;;5.00;4.07;;;23.30;95.60;;;;;;5094436;28;20823;-50
2023/06/13 12:17:07;;;;;;;5.70;4.10;;;23.50;98.50;;;;;;5094102;28;20443;-49
2023/06/13 12:19:35;;;;;;;5.37;3.70;;;23.50;95.80;;;;;;5094409;28;20474;-48
2023/06/13 12:22:02;;;;;;;8.70;4.27;;;23.50;95.50;;;;;;5092720;28;20497;-49
2023/06/13 12:24:29;;;;;;;7.30;3.77;;;23.50;96.00;;;;;;5094147;28;20554;-52
2023/06/13 12:26:57;;;;;;;6.37;4.70;;;23.50;95.50;;;;;;5094438;28;20439;-51
2023/06/13 12:29:27;;;;;;;7.47;4.60;;;23.60;95.80;;;;;;5093967;28;20897;-49
2023/06/13 12:31:59;;;;;;;12.90;5.83;;;23.60;96.00;;;;;;5094487;28;20447;-49
2023/06/13 12:34:29;;;;;;;7.40;4.50;;;23.60;93.60;;;;;;5093647;28;20887;-49
2023/06/13 12:37:03;;;;;;;9.43;5.20;;;23.60;93.70;;;;;;5094018;28;20440;-52
2023/06/13 12:39:31;;;;;;;6.40;4.60;;;23.60;94.20;;;;;;5093939;28;20501;-49
2023/06/13 12:42:03;;;;;;;16.47;5.20;;;23.60;95.60;;;;;;5090695;28;20942;-52
2023/06/13 12:44:33;;;;;;;7.33;4.33;;;23.60;93.80;;;;;;5091975;28;20471;-49
2023/06/13 12:47:02;;;;;;;5.47;3.97;;;23.60;96.90;;;;;;5093143;28;20447;-49
2023/06/13 12:49:35;;;;;;;5.40;4.07;;;23.70;93.70;;;;;;5093844;28;20585;-50
2023/06/13 12:52:04;;;;;;;7.47;4.70;;;23.80;95.30;;;;;;5093841;28;20477;-54
2023/06/13 12:54:34;;;;;;;12.03;4.13;;;23.80;93.80;;;;;;5093494;28;20525;-48